• Join FlightAware (Why Join?)
  • Login
  • US Flag 
08:19AM EDT


 

Airport Tracker/Info


-or-


 

Live Flight TrackerFlight Track Log ✈ UAL865 ✈ 24-Jul-2013 ✈ KORD - KLAX

Flight Track Log - Related Links

Times and Time Zones

All times are in EDT time to prevent confusion due to time zone crossing. See the UAL865 flight status page for this flight to view local times or setup timezone preferences in your user account.

Time Position Orientation Groundspeed Altitude Reporting Facility
EDT Latitude Longitude Course Direction KTS MPH feet Rate Location/Type
02:50PM 42.0167 -87.9000 261° West 163 188 2,200  Level Chicago TRACON
02:51PM 42.0500 -87.9500 312° West 204 235 3,100 1,320 Climbing Chicago TRACON
02:52PM 42.1000 -88.0167 315° West 258 297 5,000 2,400 Climbing Chicago TRACON
02:53PM 41.9324 -88.3380 255° West  Level FlightAware Approximate
02:53PM 42.1500 -88.0833 315° West 279 321 8,000  Level Chicago TRACON
02:54PM 41.9146 -88.4840 261° West  Level FlightAware Approximate
02:54PM 42.1447 -88.1489 264° West 279 321 10,000  Level Chicago Center
02:55PM 41.8974 -88.6313 261° West  Level FlightAware Approximate
02:55PM 42.1100 -88.2472 245° Southwest 288 331 13,000  Level Chicago Center
02:56PM 41.8801 -88.7785 261° West  Level FlightAware Approximate
02:56PM 42.0692 -88.3661 245° Southwest 343 395 14,200  Level Chicago Center
02:57PM 42.0231 -88.5014 245° Southwest 397 457 16,700 2,400 Climbing Chicago Center
02:58PM 41.9972 -88.6858 259° West 424 488 19,200 1,800 Climbing Chicago Center
02:59PM 41.9597 -88.8378 252° West 430 495 20,500 2,340 Climbing Chicago Center
03:00PM 41.9225 -88.9828 251° West 421 484 24,100 2,340 Climbing Chicago Center
03:01PM 41.8917 -89.1233 254° West 401 461 25,400 960 Climbing Chicago Center
03:02PM 41.8628 -89.3150 259° West 440 506 26,100 540 Climbing Chicago Center
03:03PM 41.8406 -89.4783 260° West 448 516 26,600 720 Climbing Chicago Center
03:04PM 41.8167 -89.6414 259° West 448 516 27,600 960 Climbing Chicago Center
03:05PM 41.7925 -89.8186 260° West 450 518 28,700 900 Climbing Chicago Center
03:06PM 41.7697 -89.9808 259° West 447 514 29,500 600 Climbing Chicago Center
03:07PM 41.7467 -90.1425 259° West 444 511 30,000 240 Climbing Chicago Center
03:08PM 41.7233 -90.3061 259° West 449 517 30,000  Level Chicago Center
03:09PM 41.6986 -90.4697 259° West 450 518 30,000  Level Chicago Center
03:10PM 41.6711 -90.6553 259° West 448 516 30,000  Level Chicago Center
03:11PM 41.6481 -90.8158 259° West 445 512 30,000  Level Chicago Center
03:12PM 41.6242 -90.9753 259° West 442 509 30,000  Level Chicago Center
03:13PM 41.5997 -91.1350 258° West 441 507 30,000  Level Chicago Center
03:15PM 41.5697 -91.3244 258° West 439 505 30,000  Level Chicago Center
03:16PM 41.5458 -91.4836 259° West 439 505 30,000  Level Chicago Center
03:17PM 41.5208 -91.6394 258° West 434 499 30,000  Level Chicago Center
03:18PM 41.4958 -91.7972 258° West 436 502 30,000  Level Chicago Center
03:19PM 41.4708 -91.9553 258° West 439 505 30,000  Level Chicago Center
03:20PM 41.4406 -92.1433 258° West 436 502 30,000  Level Chicago Center
03:21PM 41.4153 -92.3008 258° West 438 504 30,000  Level Chicago Center
03:22PM 41.3892 -92.4519 257° West 439 505 30,000  Level Chicago Center
03:23PM 41.3631 -92.6097 258° West 442 509 30,000  Level Chicago Center
03:24PM 41.3314 -92.7986 257° West 442 509 30,000  Level Chicago Center
03:25PM 41.3042 -92.9578 257° West 446 513 30,000  Level Chicago Center
03:26PM 41.2775 -93.1161 257° West 446 513 30,000  Level Chicago Center
03:27PM 41.2514 -93.2728 258° West 442 509 30,000  Level Chicago Center
03:28PM 41.2175 -93.4597 257° West 440 506 30,000  Level Chicago Center
03:29PM 41.1900 -93.6194 257° West 448 516 30,000  Level Chicago Center
03:30PM 41.1619 -93.7775 257° West 446 513 30,000  Level Chicago Center
03:31PM 41.1342 -93.9336 257° West 441 507 30,000  Level Chicago Center
03:32PM 41.1058 -94.0911 257° West 445 512 30,000  Level Chicago Center
03:33PM 41.0719 -94.2769 256° West 439 505 30,000  Level Chicago Center
03:34PM 41.0442 -94.4342 257° West 441 507 30,000  Level Chicago Center
03:35PM 41.0078 -94.6247 256° West 445 512 30,000  Level Minneapolis Center
03:37PM 40.9711 -94.8172 256° West 448 516 30,000  Level Minneapolis Center
03:38PM 40.9411 -94.9761 256° West 447 514 30,000  Level Minneapolis Center
03:39PM 40.9108 -95.1353 256° West 447 514 30,000  Level Minneapolis Center
03:40PM 40.8797 -95.2950 256° West 447 514 30,000  Level Minneapolis Center
03:41PM 40.8494 -95.4542 256° West 445 512 30,000  Level Minneapolis Center
03:42PM 40.8186 -95.6122 256° West 443 510 30,000  Level Minneapolis Center
03:43PM 40.7875 -95.7692 255° West 440 506 30,000  Level Minneapolis Center
03:44PM 40.7575 -95.9244 256° West 438 504 30,000  Level Minneapolis Center
03:45PM 40.7192 -96.1142 255° West 440 506 30,000  Level Minneapolis Center
03:46PM 40.6875 -96.2714 255° West 442 509 30,000  Level Minneapolis Center
03:47PM 40.6558 -96.4283 255° West 442 509 30,000  Level Minneapolis Center
03:48PM 40.6231 -96.5856 255° West 443 510 30,000  Level Minneapolis Center
03:49PM 40.5908 -96.7428 255° West 443 510 30,000  Level Minneapolis Center
03:50PM 40.5586 -96.8997 255° West 444 511 30,000  Level Minneapolis Center
03:51PM 40.5244 -97.0575 254° West 446 513 30,000  Level Minneapolis Center
03:52PM 40.4861 -97.2469 255° West 446 513 30,000  Level Minneapolis Center
03:53PM 40.4533 -97.4022 255° West 446 513 30,000  Level Minneapolis Center
03:54PM 40.4186 -97.5606 254° West 447 514 30,000  Level Minneapolis Center
03:55PM 40.3842 -97.7189 254° West 449 517 30,000  Level Minneapolis Center
03:56PM 40.3500 -97.8775 254° West 450 518 30,000  Level Minneapolis Center
03:57PM 40.3161 -98.0356 254° West 450 518 30,000  Level Minneapolis Center
03:58PM 40.2731 -98.2242 253° West 449 517 30,000  Level Minneapolis Center
03:59PM 40.2389 -98.3822 254° West 449 517 30,000  Level Minneapolis Center
04:00PM 40.2031 -98.5392 253° West 449 517 30,000  Level Minneapolis Center
04:01PM 40.1678 -98.6975 254° West 451 519 30,000  Level Minneapolis Center
04:02PM 40.1322 -98.8561 254° West 452 520 30,000  Level Minneapolis Center
04:03PM 40.0953 -99.0147 253° West 454 522 30,000  Level Minneapolis Center
04:04PM 40.0525 -99.2050 254° West 455 524 30,000  Level Minneapolis Center
04:06PM 40.0153 -99.3625 253° West 453 521 30,000  Level Denver Center
04:07PM 39.9781 -99.5222 253° West 460 529 30,000  Level Denver Center
04:08PM 39.9406 -99.6781 253° West 452 520 30,000  Level Denver Center
04:09PM 39.9033 -99.8369 253° West 454 522 30,000  Level Denver Center
04:10PM 39.8581 -100.0261 253° West 455 524 30,000  Level Denver Center
04:11PM 39.8200 -100.1853 253° West 459 528 30,000  Level Denver Center
04:12PM 39.7836 -100.3364 253° West 454 522 30,000  Level Denver Center
04:13PM 39.7400 -100.5114 252° West 454 522 30,000  Level Denver Center
04:14PM 39.7036 -100.6622 253° West 456 525 30,000  Level Denver Center
04:15PM 39.6597 -100.8386 252° West 458 527 30,000  Level Denver Center
04:16PM 39.6225 -100.9886 252° West 456 525 30,000  Level Denver Center
04:17PM 39.5844 -101.1394 252° West 459 528 30,000  Level Denver Center
04:18PM 39.5394 -101.3158 252° West 461 531 30,000  Level Denver Center
04:19PM 39.5019 -101.4669 252° West 460 529 30,000  Level Denver Center
04:20PM 39.4569 -101.6431 252° West 460 529 30,000  Level Denver Center
04:21PM 39.4186 -101.7928 252° West 459 528 30,000  Level Denver Center
04:22PM 39.3731 -101.9675 251° West 461 531 30,000  Level Denver Center
04:23PM 39.3319 -102.1222 251° West 462 532 30,000  Level Denver Center
04:24PM 39.2931 -102.2733 252° West 465 535 30,000  Level Denver Center
04:25PM 39.2475 -102.4467 251° West 459 528 30,000  Level Denver Center
04:26PM 39.2069 -102.5939 250° West 457 526 30,000  Level Denver Center
04:27PM 39.1617 -102.7633 251° West 458 527 30,000  Level Denver Center
04:28PM 39.1206 -102.9181 251° West 457 526 30,000  Level Denver Center
04:29PM 39.0789 -103.0733 251° West 458 527 30,000 300 Level Denver Center
04:30PM 39.0375 -103.2272 251° West 455 524 30,700 1,200 Climbing Denver Center
04:31PM 38.9869 -103.4078 250° West 447 514 32,600 1,260 Climbing Denver Center
04:32PM 38.9467 -103.5536 250° West 436 502 33,400 600 Climbing Denver Center
04:34PM 38.8947 -103.6911 244° Southwest 430 495 34,000 240 Climbing Denver Center
04:35PM 38.7942 -103.8456 230° Southwest 440 506 34,000  Level Denver Center
04:36PM 38.7200 -103.9600 230° Southwest 437 503 34,000  Level Denver Center
04:37PM 38.6333 -104.0947 231° Southwest 441 507 34,000  Level Denver Center
04:38PM 38.5503 -104.2242 231° Southwest 443 510 34,000  Level Denver Center
04:39PM 38.4728 -104.3467 231° Southwest 443 510 34,000  Level Denver Center
04:40PM 38.3758 -104.4522 220° Southwest 461 531 34,000  Level Denver Center
04:41PM 38.2625 -104.5494 214° Southwest 461 531 34,000  Level Denver Center
04:42PM 38.1586 -104.6303 211° Southwest 459 528 34,000  Level Denver Center
04:43PM 38.0492 -104.7422 219° Southwest 453 521 34,000  Level Denver Center
04:44PM 37.9844 -104.8692 237° Southwest 448 516 34,000  Level Denver Center
04:45PM 37.9200 -105.0242 242° Southwest 447 514 34,000  Level Denver Center
04:46PM 37.8922 -105.1697 256° West 448 516 34,000  Level Denver Center
04:47PM 37.8653 -105.3375 259° West 439 505 34,000  Level Denver Center
04:48PM 37.8453 -105.4825 260° West 437 503 34,000  Level Denver Center
04:49PM 37.8103 -105.6503 255° West 442 509 34,000  Level Denver Center
04:50PM 37.7747 -105.7956 253° West 451 519 34,000  Level Denver Center
04:51PM 37.7347 -105.9642 253° West 450 518 34,000  Level Denver Center
04:52PM 37.7000 -106.1078 253° West 447 514 34,000  Level Denver Center
04:53PM 37.6647 -106.2553 253° West 445 512 34,000  Level Denver Center
04:54PM 37.6253 -106.4206 253° West 441 507 34,000  Level Denver Center
04:55PM 37.5900 -106.5603 252° West 439 505 34,000  Level Denver Center
04:56PM 37.5497 -106.7256 253° West 441 507 34,000  Level Denver Center
04:57PM 37.5136 -106.8658 252° West 441 507 34,000  Level Denver Center
04:59PM 37.4856 -106.9842 253° West 441 507 34,000  Level Denver Center
05:00PM 37.4375 -107.1717 252° West 441 507 34,000  Level Denver Center
05:01PM 37.3964 -107.3356 253° West 441 507 34,000  Level Denver Center
05:02PM 37.3603 -107.4767 252° West 442 509 34,000  Level Denver Center
05:03PM 37.3181 -107.6425 252° West 446 513 34,000  Level Denver Center
05:04PM 37.2817 -107.7850 252° West 447 514 34,000  Level Denver Center
05:05PM 37.2386 -107.9508 252° West 448 516 34,000  Level Denver Center
05:06PM 37.2008 -108.0925 252° West 447 514 34,000  Level Denver Center
05:07PM 37.1600 -108.2567 253° West 443 510 34,000  Level Denver Center
05:08PM 37.1217 -108.3958 251° West 443 510 34,000  Level Denver Center
05:09PM 37.0861 -108.5347 252° West 441 507 34,000  Level Denver Center
05:10PM 37.0422 -108.6956 251° West 438 504 34,000  Level Denver Center
05:11PM 37.0053 -108.8347 252° West 440 506 34,000  Level Denver Center
05:12PM 36.9619 -108.9975 252° West 444 511 34,000  Level Denver Center
05:13PM 36.9247 -109.1353 251° West 441 507 34,000  Level Denver Center
05:14PM 36.8808 -109.2961 251° West 439 505 34,000  Level Denver Center
05:15PM 36.8422 -109.4347 251° West 442 509 34,000  Level Denver Center
05:16PM 36.7872 -109.5906 246° West 439 505 34,000  Level Denver Center
05:17PM 36.7464 -109.7017 245° Southwest 442 509 34,000  Level Denver Center
05:18PM 36.6825 -109.8775 246° West 438 504 34,000  Level Denver Center
05:19PM 36.6336 -110.0103 245° Southwest 440 506 34,000  Level Denver Center
05:20PM 36.5794 -110.1569 245° Southwest 439 505 34,000  Level Denver Center
05:21PM 36.5292 -110.2989 246° West 444 511 34,000 -300 Level Denver Center
05:22PM 36.4797 -110.4378 246° West 441 507 33,400 -780 Descending Denver Center
05:23PM 36.4308 -110.5786 247° West 442 509 32,400 -1,080 Descending Denver Center
05:24PM 36.3717 -110.7500 247° West 449 517 31,200 -1,080 Descending Denver Center
05:25PM 36.3225 -110.8994 248° West 460 529 30,200 -600 Descending Denver Center
05:26PM 36.2769 -111.0458 249° West 459 528 30,000 -120 Descending Denver Center
05:27PM 36.2303 -111.1925 249° West 457 526 30,000  Level Denver Center
05:29PM 36.1844 -111.3394 249° West 458 527 30,000  Level Denver Center
05:30PM 36.1381 -111.4839 248° West 454 522 30,000 -60 Level Denver Center
05:31PM 36.0789 -111.6583 247° West 456 525 29,900  Descending Denver Center
05:32PM 36.0303 -111.8067 248° West 462 532 30,000  Climbing Denver Center
05:33PM 35.9828 -111.9525 248° West 460 529 30,000  Level Denver Center
05:34PM 35.9333 -112.0983 247° West 459 528 30,000  Level Denver Center
05:35PM 35.8836 -112.2444 247° West 461 531 30,000  Level Denver Center
05:36PM 35.8336 -112.3897 247° West 461 531 30,000  Level Denver Center
05:37PM 35.7522 -112.6328 248° West 461 531 30,000  Level Los Angeles Center
05:38PM 35.7033 -112.7761 247° West 461 531 30,000  Level Los Angeles Center
05:39PM 35.6553 -112.9139 247° West 461 531 30,000  Level Los Angeles Center
05:40PM 35.5981 -113.0800 247° West 460 529 30,000  Level Los Angeles Center
05:41PM 35.5478 -113.2217 246° West 454 522 30,000  Level Los Angeles Center
05:42PM 35.4961 -113.3731 247° West 464 534 30,000  Level Los Angeles Center
05:43PM 35.4456 -113.5128 246° West 459 528 30,000  Level Los Angeles Center
05:45PM 35.3892 -113.6536 244° Southwest 461 531 30,000  Level Los Angeles Center
05:46PM 35.3214 -113.8206 244° Southwest 462 532 30,000  Level Los Angeles Center
05:47PM 35.2644 -113.9656 244° Southwest 462 532 30,000  Level Los Angeles Center
05:48PM 35.2144 -114.1108 247° West 464 534 30,000  Level Los Angeles Center
05:49PM 35.1644 -114.2556 247° West 462 532 30,000 -240 Level Los Angeles Center
05:50PM 35.1133 -114.4000 247° West 462 532 29,600 -720 Descending Los Angeles Center
05:51PM 35.0619 -114.5447 247° West 464 534 28,600 -780 Descending Los Angeles Center
05:52PM 35.0075 -114.6922 246° West 475 547 28,000 -300 Descending Los Angeles Center
05:53PM 34.9447 -114.8697 247° West 473 544 28,000  Level Los Angeles Center
05:54PM 34.8922 -115.0172 247° West 472 543 28,000  Level Los Angeles Center
05:55PM 34.8383 -115.1642 246° West 474 545 28,000  Level Los Angeles Center
05:56PM 34.7847 -115.3111 246° West 474 545 28,000  Level Los Angeles Center
05:57PM 34.7306 -115.4575 246° West 473 544 28,000  Level Los Angeles Center
05:58PM 34.6692 -115.6250 246° West 473 544 28,000  Level Los Angeles Center
05:59PM 34.6153 -115.7711 246° West 475 547 28,000  Level Los Angeles Center
06:00PM 34.5614 -115.9172 246° West 475 547 28,000  Level Los Angeles Center
06:01PM 34.5061 -116.0619 245° Southwest 474 545 28,000  Level Los Angeles Center
06:02PM 34.4572 -116.1928 246° West 440 506 28,000  Level Los Angeles Center
06:03PM 34.4094 -116.3217 246° West 420 483 28,000 -120 Level Los Angeles Center
06:04PM 34.3603 -116.4508 245° Southwest 423 487 27,800 -780 Descending Los Angeles Center
06:05PM 34.2983 -116.6128 245° Southwest 438 504 26,400 -1,860 Descending Los Angeles Center
06:06PM 34.2469 -116.7478 245° Southwest 440 506 24,000 -2,340 Descending Los Angeles Center
06:07PM 34.1961 -116.8781 245° Southwest 430 495 21,600 -2,280 Descending Los Angeles Center
06:08PM 34.1469 -117.0042 245° Southwest 418 481 19,300 -1,320 Descending Los Angeles Center
06:09PM 34.0972 -117.1311 245° Southwest 408 470 18,900 -1,020 Descending Los Angeles Center
06:10PM 34.0500 -117.2333 241° Southwest 378 435 17,500 -1,920 Descending Southern California TRACON
06:11PM 34.0333 -117.3500 260° West 338 389 15,600 -1,620 Descending Southern California TRACON
06:12PM 34.0333 -117.4500 270° West 296 341 14,300 -1,440 Descending Southern California TRACON
06:13PM 34.0167 -117.5500 259° West 277 319 12,800 -1,500 Descending Southern California TRACON
06:14PM 34.0167 -117.6333 270° West 323 372 11,300 -1,380 Descending Southern California TRACON
06:15PM 34.0000 -117.7167 256° West 245 282 10,100 -1,200 Descending Southern California TRACON
06:16PM 34.0000 -117.8000 270° West 246 283 8,900 -1,260 Descending Southern California TRACON
06:17PM 33.9833 -117.8833 256° West 246 283 7,600 -1,200 Descending Southern California TRACON
06:18PM 33.9833 -117.9500 270° West 217 250 6,600 -840 Descending Southern California TRACON
06:19PM 33.9667 -118.0167 253° West 194 223 6,000 -660 Descending Southern California TRACON
06:20PM 33.9667 -118.0833 270° West 187 215 5,300 -960 Descending Southern California TRACON
06:21PM 33.9667 -118.1333 270° West 182 209 4,200 -1,200 Descending Southern California TRACON
06:22PM 33.9581 -118.1817 258° West 183 211 3,300 -1,200 Descending Los Angeles Center